createdAt,value
2018-06-27T00:00:52.452Z,0.00
2018-06-27T00:01:52.447Z,0.00
2018-06-27T00:02:52.446Z,0.00
2018-06-27T00:03:52.555Z,0.00
2018-06-27T00:04:52.485Z,0.00
2018-06-27T00:05:52.491Z,0.00
2018-06-27T00:06:52.494Z,0.00
2018-06-27T00:07:52.549Z,0.00
2018-06-27T00:08:53.491Z,0.00
2018-06-27T00:09:52.587Z,0.00
2018-06-27T00:10:52.547Z,0.00
2018-06-27T00:11:52.567Z,0.00
2018-06-27T00:12:52.587Z,0.00
2018-06-27T00:13:52.595Z,0.00
2018-06-27T00:14:52.672Z,0.00
2018-06-27T00:15:52.691Z,0.00
2018-06-27T00:16:52.635Z,0.00
2018-06-27T00:17:52.659Z,0.00
2018-06-27T00:18:52.636Z,0.00
2018-06-27T00:19:52.645Z,0.00
2018-06-27T00:20:52.646Z,0.00
2018-06-27T00:21:52.677Z,0.00
2018-06-27T00:22:52.707Z,0.00
2018-06-27T00:23:52.736Z,0.00
2018-06-27T00:24:52.712Z,0.00
2018-06-27T00:25:52.721Z,0.00
2018-06-27T00:26:52.742Z,0.00
2018-06-27T00:27:52.728Z,0.00
2018-06-27T00:28:52.844Z,0.00
2018-06-27T00:29:52.759Z,0.00
2018-06-27T00:30:52.780Z,0.00
2018-06-27T00:31:52.862Z,0.00
2018-06-27T00:32:52.789Z,0.00
2018-06-27T00:33:52.886Z,0.00
2018-06-27T00:34:52.835Z,0.00
2018-06-27T00:35:52.820Z,0.00
2018-06-27T00:36:52.839Z,0.00
2018-06-27T00:37:52.877Z,0.00
2018-06-27T00:38:52.914Z,0.00
2018-06-27T00:39:52.868Z,0.00
2018-06-27T00:40:52.870Z,0.00
2018-06-27T00:41:52.885Z,0.00
2018-06-27T00:42:52.900Z,0.00
2018-06-27T00:43:52.955Z,0.00
2018-06-27T00:44:52.969Z,0.00
2018-06-27T00:45:52.950Z,0.00
2018-06-27T00:46:52.945Z,0.00
2018-06-27T00:47:52.967Z,0.00
2018-06-27T00:48:53.012Z,0.00
2018-06-27T00:49:53.024Z,0.00
2018-06-27T00:50:53.004Z,0.00
2018-06-27T00:51:53.025Z,0.00
2018-06-27T00:52:53.026Z,0.00
2018-06-27T00:53:53.032Z,0.00
2018-06-27T00:54:53.081Z,0.00
2018-06-27T00:55:53.131Z,0.00
2018-06-27T00:56:53.164Z,0.00
2018-06-27T00:57:53.069Z,0.00
2018-06-27T00:58:53.092Z,0.00
2018-06-27T00:59:53.101Z,0.00
2018-06-27T01:00:53.117Z,0.00
2018-06-27T01:01:53.121Z,0.00
2018-06-27T01:02:53.177Z,0.00
2018-06-27T01:03:53.150Z,0.00
2018-06-27T01:04:53.149Z,0.00
2018-06-27T01:05:53.275Z,0.00
2018-06-27T01:06:53.210Z,0.00
2018-06-27T01:07:53.191Z,0.00
2018-06-27T01:08:53.276Z,0.00
2018-06-27T01:09:53.218Z,0.00
2018-06-27T01:10:53.290Z,0.00
2018-06-27T01:11:53.263Z,0.00
2018-06-27T01:12:53.503Z,0.00
2018-06-27T01:13:53.302Z,0.00
2018-06-27T01:14:53.366Z,0.00
2018-06-27T01:15:53.309Z,0.00
2018-06-27T01:16:53.296Z,0.00
2018-06-27T01:17:53.435Z,0.00
2018-06-27T01:18:53.345Z,0.00
2018-06-27T01:19:53.321Z,0.00
2018-06-27T01:20:53.378Z,0.00
2018-06-27T01:21:53.362Z,0.00
2018-06-27T01:22:53.354Z,0.00
2018-06-27T01:23:53.362Z,0.00
2018-06-27T01:24:53.390Z,0.00
2018-06-27T01:25:53.457Z,0.00
2018-06-27T01:26:53.439Z,0.00
2018-06-27T01:27:53.418Z,0.00
2018-06-27T01:28:53.429Z,0.00
2018-06-27T01:29:53.432Z,0.00
2018-06-27T01:30:53.441Z,0.00
2018-06-27T01:31:53.486Z,0.00
2018-06-27T01:32:53.491Z,0.00
2018-06-27T01:33:53.626Z,0.00
2018-06-27T01:34:53.512Z,0.00
2018-06-27T01:35:53.514Z,0.00
2018-06-27T01:36:53.544Z,0.00
2018-06-27T01:37:53.585Z,0.00
2018-06-27T01:38:53.547Z,0.00
2018-06-27T01:39:53.572Z,0.00
2018-06-27T01:40:53.568Z,0.00
2018-06-27T01:41:53.609Z,0.00
2018-06-27T01:42:53.581Z,0.00
2018-06-27T01:43:53.623Z,0.00
2018-06-27T01:44:53.640Z,0.00
2018-06-27T01:45:53.634Z,0.00
2018-06-27T01:46:53.627Z,0.00
2018-06-27T01:47:53.648Z,0.00
2018-06-27T01:48:53.694Z,0.00
2018-06-27T01:49:53.670Z,0.00
2018-06-27T01:50:53.678Z,0.00
2018-06-27T01:51:53.691Z,0.00
2018-06-27T01:52:53.726Z,0.00
2018-06-27T01:53:53.716Z,0.00
2018-06-27T01:54:53.737Z,0.00
2018-06-27T01:55:53.774Z,0.00
2018-06-27T01:56:53.757Z,0.00
2018-06-27T01:57:53.758Z,0.00
2018-06-27T01:58:53.768Z,0.00
2018-06-27T01:59:53.795Z,0.00
2018-06-27T02:00:53.833Z,0.00
2018-06-27T02:01:53.809Z,0.00
2018-06-27T02:02:53.815Z,0.00
2018-06-27T02:03:53.846Z,0.00
2018-06-27T02:04:53.826Z,0.00
2018-06-27T02:05:53.914Z,0.00
2018-06-27T02:06:53.862Z,0.00
2018-06-27T02:07:53.863Z,0.00
2018-06-27T02:08:53.874Z,0.00
2018-06-27T02:09:53.902Z,0.00
2018-06-27T02:10:54.009Z,0.00
2018-06-27T02:11:53.960Z,0.00
2018-06-27T02:12:53.943Z,0.00
2018-06-27T02:13:53.944Z,0.00
2018-06-27T02:14:53.954Z,0.00
2018-06-27T02:15:53.955Z,0.00
2018-06-27T02:16:54.002Z,0.00
2018-06-27T02:17:53.977Z,0.00
2018-06-27T02:18:53.998Z,0.00
2018-06-27T02:19:53.995Z,0.00
2018-06-27T02:20:54.011Z,0.00
2018-06-27T02:21:54.058Z,0.00
2018-06-27T02:22:54.038Z,0.00
2018-06-27T02:23:54.065Z,0.00
2018-06-27T02:24:54.050Z,0.00
2018-06-27T02:25:54.058Z,0.00
2018-06-27T02:26:54.109Z,0.00
2018-06-27T02:27:54.105Z,0.00
2018-06-27T02:28:54.110Z,0.00
2018-06-27T02:29:54.119Z,0.00
2018-06-27T02:30:54.116Z,0.00
2018-06-27T02:31:54.179Z,0.00
2018-06-27T02:32:54.152Z,0.00
2018-06-27T02:33:54.163Z,0.00
2018-06-27T02:34:54.205Z,0.00
2018-06-27T02:35:54.209Z,0.00
2018-06-27T02:36:54.189Z,0.00
2018-06-27T02:37:54.209Z,5.63
2018-06-27T02:38:54.211Z,5.63
2018-06-27T02:39:54.224Z,5.63
2018-06-27T02:40:54.286Z,5.63
2018-06-27T02:41:54.257Z,5.63
2018-06-27T02:42:54.279Z,5.63
2018-06-27T02:43:54.298Z,5.63
2018-06-27T02:44:54.274Z,5.63
2018-06-27T02:45:54.334Z,5.63
2018-06-27T02:46:54.357Z,5.63
2018-06-27T02:47:54.306Z,11.25
2018-06-27T02:48:54.326Z,11.25
2018-06-27T02:49:54.419Z,11.25
2018-06-27T02:50:54.362Z,11.25
2018-06-27T02:51:54.387Z,11.25
2018-06-27T02:52:54.429Z,11.25
2018-06-27T02:53:54.377Z,11.25
2018-06-27T02:54:54.397Z,16.88
2018-06-27T02:55:54.421Z,16.88
2018-06-27T02:56:54.458Z,16.88
2018-06-27T02:57:54.464Z,16.88
2018-06-27T02:58:54.439Z,16.88
2018-06-27T02:59:54.460Z,16.88
2018-06-27T03:00:54.474Z,16.88
2018-06-27T03:01:54.477Z,16.88
2018-06-27T03:02:54.515Z,16.88
2018-06-27T03:03:54.570Z,22.50
2018-06-27T03:04:54.506Z,22.50
2018-06-27T03:05:54.528Z,22.50
2018-06-27T03:06:54.530Z,28.13
2018-06-27T03:07:54.548Z,28.13
2018-06-27T03:08:54.596Z,28.13
2018-06-27T03:09:54.561Z,33.75
2018-06-27T03:10:54.581Z,33.75
2018-06-27T03:11:54.590Z,33.75
2018-06-27T03:12:54.590Z,33.75
2018-06-27T03:13:54.647Z,39.38
2018-06-27T03:14:54.639Z,45.00
2018-06-27T03:15:54.639Z,45.00
2018-06-27T03:16:54.635Z,50.63
2018-06-27T03:17:54.654Z,50.63
2018-06-27T03:18:54.715Z,56.25
2018-06-27T03:19:54.674Z,61.88
2018-06-27T03:20:54.706Z,67.50
2018-06-27T03:21:54.725Z,73.13
2018-06-27T03:22:54.698Z,73.13
2018-06-27T03:23:54.762Z,73.13
2018-06-27T03:24:54.730Z,73.13
2018-06-27T03:25:54.893Z,73.13
2018-06-27T03:26:54.743Z,73.13
2018-06-27T03:27:54.767Z,67.50
2018-06-27T03:28:54.833Z,56.25
2018-06-27T03:29:54.835Z,50.63
2018-06-27T03:30:54.792Z,50.63
2018-06-27T03:31:54.818Z,56.25
2018-06-27T03:32:54.828Z,61.88
2018-06-27T03:33:54.895Z,61.88
2018-06-27T03:34:54.839Z,56.25
2018-06-27T03:35:54.871Z,56.25
2018-06-27T03:36:55.375Z,61.88
2018-06-27T03:37:56.363Z,73.13
2018-06-27T03:38:57.966Z,78.75
2018-06-27T03:39:54.946Z,84.38
2018-06-27T03:40:54.915Z,95.63
2018-06-27T03:41:54.919Z,90.00
2018-06-27T03:42:54.943Z,78.75
2018-06-27T03:43:54.968Z,73.13
2018-06-27T03:44:54.984Z,67.50
2018-06-27T03:45:54.980Z,67.50
2018-06-27T03:46:54.993Z,67.50
2018-06-27T03:47:55.019Z,73.13
2018-06-27T03:48:55.040Z,78.75
2018-06-27T03:49:55.010Z,90.00
2018-06-27T03:50:55.075Z,95.63
2018-06-27T03:51:55.065Z,95.63
2018-06-27T03:52:55.053Z,106.88
2018-06-27T03:53:55.104Z,106.88
2018-06-27T03:54:55.078Z,118.13
2018-06-27T03:55:55.093Z,123.75
2018-06-27T03:56:55.089Z,118.13
2018-06-27T03:57:55.119Z,118.13
2018-06-27T03:58:55.210Z,106.88
2018-06-27T03:59:55.127Z,101.25
2018-06-27T04:00:55.134Z,90.00
2018-06-27T04:01:55.156Z,101.25
2018-06-27T04:02:55.205Z,106.88
2018-06-27T04:03:55.170Z,163.13
2018-06-27T04:04:55.245Z,208.13
2018-06-27T04:05:55.206Z,208.13
2018-06-27T04:06:55.209Z,180.00
2018-06-27T04:07:55.236Z,151.88
2018-06-27T04:08:55.247Z,168.75
2018-06-27T04:09:55.273Z,191.25
2018-06-27T04:10:55.252Z,202.50
2018-06-27T04:11:55.280Z,208.13
2018-06-27T04:12:55.424Z,258.75
2018-06-27T04:13:55.331Z,253.13
2018-06-27T04:14:55.303Z,286.88
2018-06-27T04:15:55.311Z,320.63
2018-06-27T04:16:55.324Z,393.75
2018-06-27T04:17:55.404Z,455.63
2018-06-27T04:18:55.392Z,489.38
2018-06-27T04:19:55.376Z,523.13
2018-06-27T04:20:55.385Z,511.88
2018-06-27T04:21:55.429Z,326.25
2018-06-27T04:22:55.434Z,320.63
2018-06-27T04:23:55.453Z,292.50
2018-06-27T04:24:55.549Z,225.00
2018-06-27T04:25:55.441Z,213.75
2018-06-27T04:26:55.476Z,281.25
2018-06-27T04:27:55.458Z,343.13
2018-06-27T04:28:55.506Z,483.75
2018-06-27T04:29:55.489Z,646.88
2018-06-27T04:30:55.503Z,618.75
2018-06-27T04:31:55.568Z,601.88
2018-06-27T04:32:55.517Z,601.88
2018-06-27T04:33:55.538Z,630.00
2018-06-27T04:34:55.579Z,607.50
2018-06-27T04:35:55.678Z,601.88
2018-06-27T04:36:55.570Z,607.50
2018-06-27T04:37:55.597Z,601.88
2018-06-27T04:38:55.592Z,585.00
2018-06-27T04:39:55.656Z,562.50
2018-06-27T04:40:55.627Z,556.88
2018-06-27T04:41:55.639Z,545.63
2018-06-27T04:42:55.643Z,540.00
2018-06-27T04:43:55.667Z,511.88
2018-06-27T04:44:55.737Z,483.75
2018-06-27T04:45:55.688Z,472.50
2018-06-27T04:46:55.721Z,478.13
2018-06-27T04:47:55.729Z,478.13
2018-06-27T04:48:55.725Z,506.25
2018-06-27T04:49:55.808Z,500.63
2018-06-27T04:50:55.814Z,500.63
2018-06-27T04:51:55.787Z,517.50
2018-06-27T04:52:55.807Z,517.50
2018-06-27T04:53:55.795Z,523.13
2018-06-27T04:54:55.953Z,511.88
2018-06-27T04:55:55.858Z,506.25
2018-06-27T04:56:55.849Z,500.63
2018-06-27T04:57:55.871Z,483.75
2018-06-27T04:58:55.986Z,461.25
2018-06-27T04:59:55.910Z,450.00
2018-06-27T05:00:55.895Z,427.50
2018-06-27T05:01:55.972Z,405.00
2018-06-27T05:02:55.930Z,365.63
2018-06-27T05:03:55.949Z,343.13
2018-06-27T05:04:55.967Z,331.88
2018-06-27T05:05:56.012Z,348.75
2018-06-27T05:06:56.041Z,371.25
2018-06-27T05:07:56.018Z,421.88
2018-06-27T05:08:56.014Z,466.88
2018-06-27T05:09:56.041Z,511.88
2018-06-27T05:10:56.057Z,556.88
2018-06-27T05:11:56.095Z,596.25
2018-06-27T05:12:56.144Z,613.13
2018-06-27T05:13:56.088Z,691.88
2018-06-27T05:14:56.110Z,770.63
2018-06-27T05:15:56.118Z,815.63
2018-06-27T05:16:56.153Z,838.13
2018-06-27T05:17:56.182Z,843.75
2018-06-27T05:18:56.191Z,838.13
2018-06-27T05:19:56.183Z,849.38
2018-06-27T05:20:56.196Z,843.75
2018-06-27T05:21:56.203Z,832.50
2018-06-27T05:22:56.230Z,843.75
2018-06-27T05:23:56.281Z,826.88
2018-06-27T05:24:56.249Z,843.75
2018-06-27T05:25:56.280Z,832.50
2018-06-27T05:26:56.272Z,815.63
2018-06-27T05:27:56.322Z,832.50
2018-06-27T05:28:56.339Z,826.88
2018-06-27T05:29:56.331Z,832.50
2018-06-27T05:30:56.348Z,821.25
2018-06-27T05:31:56.391Z,821.25
2018-06-27T05:32:56.372Z,810.00
2018-06-27T05:33:56.493Z,810.00
2018-06-27T05:34:56.445Z,798.75
2018-06-27T05:35:56.406Z,787.50
2018-06-27T05:36:56.425Z,770.63
2018-06-27T05:37:56.457Z,753.75
2018-06-27T05:38:56.478Z,725.63
2018-06-27T05:39:56.576Z,714.38
2018-06-27T05:40:56.501Z,691.88
2018-06-27T05:41:56.541Z,658.13
2018-06-27T05:42:56.552Z,652.50
2018-06-27T05:43:56.544Z,630.00
2018-06-27T05:44:56.595Z,613.13
2018-06-27T05:45:56.680Z,596.25
2018-06-27T05:46:56.616Z,545.63
2018-06-27T05:47:56.606Z,461.25
2018-06-27T05:48:56.634Z,343.13
2018-06-27T05:49:56.679Z,230.63
2018-06-27T05:50:56.773Z,163.13
2018-06-27T05:51:56.713Z,135.00
2018-06-27T05:52:56.732Z,123.75
2018-06-27T05:53:56.720Z,112.50
2018-06-27T05:54:56.745Z,112.50
2018-06-27T05:55:56.755Z,112.50
2018-06-27T05:56:56.806Z,112.50
2018-06-27T05:57:56.784Z,112.50
2018-06-27T05:58:56.868Z,112.50
2018-06-27T05:59:56.820Z,112.50
2018-06-27T06:00:56.847Z,112.50
2018-06-27T06:01:56.890Z,118.13
2018-06-27T06:02:56.889Z,118.13
2018-06-27T06:03:56.889Z,118.13
2018-06-27T06:04:56.902Z,118.13
2018-06-27T06:05:56.956Z,118.13
2018-06-27T06:06:56.969Z,118.13
2018-06-27T06:07:56.965Z,118.13
2018-06-27T06:08:56.960Z,118.13
2018-06-27T06:09:57.022Z,118.13
2018-06-27T06:10:57.036Z,118.13
2018-06-27T06:11:57.025Z,118.13
2018-06-27T06:12:57.031Z,123.75
2018-06-27T06:13:57.049Z,123.75
2018-06-27T06:14:57.054Z,123.75
2018-06-27T06:15:57.156Z,123.75
2018-06-27T06:16:57.109Z,123.75
2018-06-27T06:17:57.106Z,129.38
2018-06-27T06:18:57.126Z,135.00
2018-06-27T06:19:57.151Z,135.00
2018-06-27T06:20:57.182Z,140.63
2018-06-27T06:21:57.148Z,140.63
2018-06-27T06:22:57.176Z,140.63
2018-06-27T06:23:57.334Z,140.63
2018-06-27T06:24:57.186Z,140.63
2018-06-27T06:25:57.207Z,151.88
2018-06-27T06:26:57.256Z,168.75
2018-06-27T06:27:57.303Z,191.25
2018-06-27T06:28:57.328Z,202.50
2018-06-27T06:29:57.294Z,225.00
2018-06-27T06:30:57.277Z,247.50
2018-06-27T06:31:57.298Z,270.00
2018-06-27T06:32:57.328Z,292.50
2018-06-27T06:33:57.342Z,309.38
2018-06-27T06:34:57.375Z,331.88
2018-06-27T06:35:57.369Z,320.63
2018-06-27T06:36:57.358Z,388.13
2018-06-27T06:37:57.379Z,337.50
2018-06-27T06:38:57.421Z,360.00
2018-06-27T06:39:57.409Z,298.13
2018-06-27T06:40:57.445Z,371.25
2018-06-27T06:41:57.468Z,365.63
2018-06-27T06:42:57.450Z,343.13
2018-06-27T06:43:57.608Z,393.75
2018-06-27T06:44:57.502Z,331.88
2018-06-27T06:45:57.535Z,247.50
2018-06-27T06:46:57.532Z,331.88
2018-06-27T06:47:57.507Z,225.00
2018-06-27T06:48:57.536Z,185.63
2018-06-27T06:49:57.553Z,213.75
2018-06-27T06:50:57.641Z,140.63
2018-06-27T06:51:57.561Z,123.75
2018-06-27T06:52:57.571Z,118.13
2018-06-27T06:53:57.594Z,112.50
2018-06-27T06:54:57.607Z,95.63
2018-06-27T06:55:57.688Z,106.88
2018-06-27T06:56:57.690Z,106.88
2018-06-27T06:57:57.664Z,101.25
2018-06-27T06:58:57.655Z,106.88
2018-06-27T06:59:57.676Z,106.88
2018-06-27T07:00:57.730Z,101.25
2018-06-27T07:01:57.727Z,101.25
2018-06-27T07:02:57.718Z,101.25
2018-06-27T07:03:57.740Z,90.00
2018-06-27T07:04:57.802Z,101.25
2018-06-27T07:05:57.796Z,106.88
2018-06-27T07:06:57.770Z,101.25
2018-06-27T07:07:57.779Z,112.50
2018-06-27T07:08:57.885Z,73.13
2018-06-27T07:09:57.824Z,73.13
2018-06-27T07:10:57.962Z,101.25
2018-06-27T07:11:57.856Z,106.88
2018-06-27T07:12:57.867Z,101.25
2018-06-27T07:13:57.857Z,78.75
2018-06-27T07:14:57.879Z,101.25
2018-06-27T07:15:57.951Z,101.25
2018-06-27T07:16:57.916Z,101.25
2018-06-27T07:17:57.929Z,95.63
2018-06-27T07:18:57.945Z,84.38
2018-06-27T07:19:57.982Z,90.00
2018-06-27T07:20:58.003Z,123.75
2018-06-27T07:21:57.986Z,118.13
2018-06-27T07:22:57.993Z,90.00
2018-06-27T07:23:58.046Z,101.25
2018-06-27T07:24:58.027Z,140.63
2018-06-27T07:25:58.037Z,112.50
2018-06-27T07:26:58.050Z,101.25
2018-06-27T07:27:58.053Z,84.38
2018-06-27T07:28:58.126Z,95.63
2018-06-27T07:29:58.167Z,84.38
2018-06-27T07:30:58.104Z,84.38
2018-06-27T07:31:58.151Z,90.00
2018-06-27T07:32:58.146Z,101.25
2018-06-27T07:33:58.141Z,106.88
2018-06-27T07:34:58.228Z,135.00
2018-06-27T07:35:58.258Z,95.63
2018-06-27T07:36:58.185Z,101.25
2018-06-27T07:37:58.197Z,129.38
2018-06-27T07:38:58.237Z,95.63
2018-06-27T07:39:58.296Z,90.00
2018-06-27T07:40:58.229Z,101.25
2018-06-27T07:41:58.239Z,118.13
2018-06-27T07:42:58.267Z,151.88
2018-06-27T07:43:58.280Z,163.13
2018-06-27T07:44:58.376Z,180.00
2018-06-27T07:45:58.354Z,140.63
2018-06-27T07:46:58.347Z,106.88
2018-06-27T07:47:58.319Z,101.25
2018-06-27T07:48:58.336Z,140.63
2018-06-27T07:49:58.511Z,129.38
2018-06-27T07:50:58.408Z,140.63
2018-06-27T07:51:58.427Z,129.38
2018-06-27T07:52:58.391Z,118.13
2018-06-27T07:53:58.399Z,112.50
2018-06-27T07:54:58.419Z,106.88
2018-06-27T07:55:58.457Z,106.88
2018-06-27T07:56:58.452Z,106.88
2018-06-27T07:57:58.465Z,101.25
2018-06-27T07:58:58.459Z,84.38
2018-06-27T07:59:58.488Z,78.75
2018-06-27T08:00:58.584Z,90.00
2018-06-27T08:01:58.504Z,90.00
2018-06-27T08:02:58.521Z,84.38
2018-06-27T08:03:58.543Z,90.00
2018-06-27T08:04:58.557Z,90.00
2018-06-27T08:05:58.601Z,95.63
2018-06-27T08:06:58.742Z,101.25
2018-06-27T08:07:58.596Z,90.00
2018-06-27T08:08:58.606Z,78.75
2018-06-27T08:09:58.621Z,95.63
2018-06-27T08:10:58.655Z,90.00
2018-06-27T08:11:58.676Z,84.38
2018-06-27T08:12:58.726Z,84.38
2018-06-27T08:13:58.679Z,73.13
2018-06-27T08:14:58.677Z,78.75
2018-06-27T08:15:58.710Z,84.38
2018-06-27T08:16:58.712Z,90.00
2018-06-27T08:17:58.807Z,106.88
2018-06-27T08:18:58.749Z,106.88
2018-06-27T08:19:58.751Z,95.63
2018-06-27T08:20:58.769Z,90.00
2018-06-27T08:21:58.765Z,95.63
2018-06-27T08:22:58.838Z,112.50
2018-06-27T08:23:58.803Z,106.88
2018-06-27T08:24:58.820Z,112.50
2018-06-27T08:25:58.899Z,112.50
2018-06-27T08:26:59.543Z,106.88
2018-06-27T08:28:01.561Z,106.88
2018-06-27T08:28:58.970Z,106.88
2018-06-27T08:29:58.874Z,112.50
2018-06-27T08:30:58.900Z,123.75
2018-06-27T08:31:58.913Z,123.75
2018-06-27T08:32:58.943Z,118.13
2018-06-27T08:33:59.030Z,106.88
2018-06-27T08:34:58.960Z,118.13
2018-06-27T08:35:58.967Z,118.13
2018-06-27T08:36:58.981Z,118.13
2018-06-27T08:37:59.007Z,112.50
2018-06-27T08:38:59.048Z,106.88
2018-06-27T08:39:59.070Z,106.88
2018-06-27T08:40:59.018Z,106.88
2018-06-27T08:41:59.060Z,101.25
2018-06-27T08:42:59.067Z,95.63
2018-06-27T08:43:59.071Z,101.25
2018-06-27T08:44:59.159Z,101.25
2018-06-27T08:45:59.127Z,101.25
2018-06-27T08:46:59.126Z,106.88
2018-06-27T08:47:59.119Z,101.25
2018-06-27T08:48:59.224Z,101.25
2018-06-27T08:49:59.227Z,106.88
2018-06-27T08:50:59.158Z,118.13
2018-06-27T08:51:59.178Z,123.75
2018-06-27T08:52:59.206Z,140.63
2018-06-27T08:53:59.237Z,140.63
2018-06-27T08:54:59.267Z,135.00
2018-06-27T08:55:59.339Z,118.13
2018-06-27T08:56:59.237Z,129.38
2018-06-27T08:57:59.258Z,140.63
2018-06-27T08:58:59.267Z,129.38
2018-06-27T08:59:59.329Z,123.75
2018-06-27T09:00:59.320Z,118.13
2018-06-27T09:01:59.311Z,135.00
2018-06-27T09:02:59.328Z,112.50
2018-06-27T09:03:59.348Z,118.13
2018-06-27T09:04:59.357Z,101.25
2018-06-27T09:05:59.396Z,106.88
2018-06-27T09:06:59.412Z,101.25
2018-06-27T09:07:59.384Z,106.88
2018-06-27T09:08:59.418Z,118.13
2018-06-27T09:09:59.412Z,129.38
2018-06-27T09:10:59.455Z,140.63
2018-06-27T09:11:59.493Z,151.88
2018-06-27T09:12:59.464Z,157.50
2018-06-27T09:13:59.481Z,174.38
2018-06-27T09:14:59.567Z,140.63
2018-06-27T09:15:59.519Z,140.63
2018-06-27T09:16:59.524Z,140.63
2018-06-27T09:17:59.524Z,123.75
2018-06-27T09:18:59.555Z,106.88
2018-06-27T09:19:59.554Z,123.75
2018-06-27T09:20:59.727Z,129.38
2018-06-27T09:21:59.615Z,140.63
2018-06-27T09:22:59.593Z,140.63
2018-06-27T09:23:59.618Z,135.00
2018-06-27T09:24:59.631Z,129.38
2018-06-27T09:25:59.649Z,123.75
2018-06-27T09:26:59.672Z,129.38
2018-06-27T09:27:59.697Z,135.00
2018-06-27T09:28:59.671Z,135.00
2018-06-27T09:29:59.708Z,140.63
2018-06-27T09:30:59.698Z,140.63
2018-06-27T09:31:59.707Z,157.50
2018-06-27T09:32:59.770Z,163.13
2018-06-27T09:33:59.799Z,157.50
2018-06-27T09:34:59.764Z,151.88
2018-06-27T09:35:59.785Z,146.25
2018-06-27T09:36:59.816Z,146.25
2018-06-27T09:37:59.799Z,129.38
2018-06-27T09:38:59.844Z,129.38
2018-06-27T09:39:59.839Z,135.00
2018-06-27T09:40:59.888Z,140.63
2018-06-27T09:41:59.877Z,151.88
2018-06-27T09:42:59.857Z,135.00
2018-06-27T09:43:59.939Z,146.25
2018-06-27T09:44:59.924Z,151.88
2018-06-27T09:45:59.914Z,151.88
2018-06-27T09:46:59.923Z,157.50
2018-06-27T09:47:59.922Z,157.50
2018-06-27T09:48:59.995Z,146.25
2018-06-27T09:49:59.986Z,146.25
2018-06-27T09:50:59.965Z,146.25
2018-06-27T09:52:00.000Z,129.38
2018-06-27T09:53:00.028Z,118.13
2018-06-27T09:54:00.049Z,112.50
2018-06-27T09:55:00.064Z,123.75
2018-06-27T09:56:00.082Z,135.00
2018-06-27T09:57:00.100Z,140.63
2018-06-27T09:58:00.069Z,146.25
2018-06-27T09:59:00.092Z,146.25
2018-06-27T10:00:00.111Z,146.25
2018-06-27T10:01:00.174Z,146.25
2018-06-27T10:02:00.131Z,129.38
2018-06-27T10:03:00.141Z,129.38
2018-06-27T10:04:00.142Z,135.00
2018-06-27T10:05:00.175Z,129.38
2018-06-27T10:06:00.227Z,123.75
2018-06-27T10:07:00.199Z,118.13
2018-06-27T10:08:00.210Z,112.50
2018-06-27T10:09:00.231Z,101.25
2018-06-27T10:10:00.260Z,101.25
2018-06-27T10:11:00.288Z,106.88
2018-06-27T10:12:00.301Z,106.88
2018-06-27T10:13:00.268Z,112.50
2018-06-27T10:14:00.295Z,123.75
2018-06-27T10:15:00.364Z,135.00
2018-06-27T10:16:00.327Z,129.38
2018-06-27T10:17:00.439Z,118.13
2018-06-27T10:18:00.361Z,129.38
2018-06-27T10:19:00.361Z,129.38
2018-06-27T10:20:00.377Z,140.63
2018-06-27T10:21:00.395Z,140.63
2018-06-27T10:22:00.471Z,135.00
2018-06-27T10:23:00.418Z,146.25
2018-06-27T10:24:00.461Z,146.25
2018-06-27T10:25:00.446Z,129.38
2018-06-27T10:26:00.470Z,112.50
2018-06-27T10:27:00.504Z,112.50
2018-06-27T10:28:00.549Z,112.50
2018-06-27T10:29:00.504Z,106.88
2018-06-27T10:30:00.520Z,106.88
2018-06-27T10:31:00.567Z,101.25
2018-06-27T10:32:00.580Z,101.25
2018-06-27T10:33:00.620Z,95.63
2018-06-27T10:34:00.593Z,84.38
2018-06-27T10:35:00.592Z,84.38
2018-06-27T10:36:00.614Z,90.00
2018-06-27T10:37:00.602Z,90.00
2018-06-27T10:38:00.668Z,90.00
2018-06-27T10:39:00.666Z,95.63
2018-06-27T10:40:00.672Z,84.38
2018-06-27T10:41:00.727Z,90.00
2018-06-27T10:42:00.731Z,95.63
2018-06-27T10:43:00.727Z,95.63
2018-06-27T10:44:00.714Z,101.25
2018-06-27T10:45:00.713Z,101.25
2018-06-27T10:46:00.736Z,101.25
2018-06-27T10:47:00.748Z,101.25
2018-06-27T10:48:00.812Z,101.25
2018-06-27T10:49:00.779Z,106.88
2018-06-27T10:50:00.788Z,101.25
2018-06-27T10:51:00.854Z,112.50
2018-06-27T10:52:00.851Z,118.13
2018-06-27T10:53:00.863Z,112.50
2018-06-27T10:54:00.852Z,106.88
2018-06-27T10:55:00.928Z,95.63
2018-06-27T10:56:00.871Z,101.25
2018-06-27T10:57:00.892Z,101.25
2018-06-27T10:58:00.920Z,112.50
2018-06-27T10:59:00.977Z,112.50
2018-06-27T11:00:00.943Z,106.88
2018-06-27T11:01:00.949Z,95.63
2018-06-27T11:02:00.966Z,90.00
2018-06-27T11:03:00.984Z,84.38
2018-06-27T11:04:01.041Z,101.25
2018-06-27T11:05:01.056Z,106.88
2018-06-27T11:06:01.018Z,112.50
2018-06-27T11:07:01.021Z,112.50
2018-06-27T11:08:01.056Z,112.50
2018-06-27T11:09:01.074Z,106.88
2018-06-27T11:10:01.125Z,101.25
2018-06-27T11:11:01.098Z,101.25
2018-06-27T11:12:01.127Z,112.50
2018-06-27T11:13:01.143Z,140.63
2018-06-27T11:14:01.160Z,146.25
2018-06-27T11:15:01.171Z,157.50
2018-06-27T11:16:01.149Z,157.50
2018-06-27T11:17:01.169Z,151.88
2018-06-27T11:18:01.183Z,140.63
2018-06-27T11:19:01.196Z,123.75
2018-06-27T11:20:01.250Z,118.13
2018-06-27T11:21:01.242Z,112.50
2018-06-27T11:22:01.234Z,101.25
2018-06-27T11:23:01.249Z,101.25
2018-06-27T11:24:01.280Z,101.25
2018-06-27T11:25:01.336Z,101.25
2018-06-27T11:26:01.294Z,101.25
2018-06-27T11:27:01.313Z,101.25
2018-06-27T11:28:01.330Z,95.63
2018-06-27T11:29:01.345Z,95.63
2018-06-27T11:30:01.418Z,90.00
2018-06-27T11:31:01.388Z,95.63
2018-06-27T11:32:01.387Z,106.88
2018-06-27T11:33:01.410Z,106.88
2018-06-27T11:34:01.408Z,106.88
2018-06-27T11:35:01.465Z,95.63
2018-06-27T11:36:01.469Z,95.63
2018-06-27T11:37:01.447Z,90.00
2018-06-27T11:38:01.531Z,90.00
2018-06-27T11:39:01.494Z,84.38
2018-06-27T11:40:01.486Z,78.75
2018-06-27T11:41:01.502Z,78.75
2018-06-27T11:42:01.525Z,84.38
2018-06-27T11:43:01.593Z,90.00
2018-06-27T11:44:01.556Z,90.00
2018-06-27T11:45:02.594Z,95.63
2018-06-27T11:46:01.572Z,95.63
2018-06-27T11:47:01.641Z,101.25
2018-06-27T11:48:01.662Z,101.25
2018-06-27T11:49:01.625Z,101.25
2018-06-27T11:50:01.636Z,101.25
2018-06-27T11:51:01.678Z,101.25
2018-06-27T11:52:01.688Z,106.88
2018-06-27T11:53:01.731Z,106.88
2018-06-27T11:54:01.702Z,101.25
2018-06-27T11:55:01.807Z,101.25
2018-06-27T11:56:01.761Z,106.88
2018-06-27T11:57:01.737Z,106.88
2018-06-27T11:58:01.773Z,112.50
2018-06-27T11:59:01.772Z,112.50
2018-06-27T12:00:01.787Z,101.25
2018-06-27T12:01:01.836Z,112.50
2018-06-27T12:02:01.816Z,123.75
2018-06-27T12:03:01.831Z,129.38
2018-06-27T12:04:01.838Z,129.38
2018-06-27T12:05:01.860Z,129.38
2018-06-27T12:06:01.905Z,112.50
2018-06-27T12:07:01.877Z,106.88
2018-06-27T12:08:01.898Z,101.25
2018-06-27T12:09:01.978Z,106.88
2018-06-27T12:10:01.918Z,101.25
2018-06-27T12:11:01.988Z,95.63
2018-06-27T12:12:01.970Z,90.00
2018-06-27T12:13:01.976Z,84.38
2018-06-27T12:14:02.030Z,84.38
2018-06-27T12:15:01.997Z,90.00
2018-06-27T12:16:02.026Z,95.63
2018-06-27T12:17:02.210Z,95.63
2018-06-27T12:18:02.079Z,101.25
2018-06-27T12:19:02.048Z,101.25
2018-06-27T12:20:02.110Z,112.50
2018-06-27T12:21:02.122Z,112.50
2018-06-27T12:22:02.121Z,118.13
2018-06-27T12:23:02.161Z,123.75
2018-06-27T12:24:02.151Z,135.00
2018-06-27T12:25:02.155Z,129.38
2018-06-27T12:26:02.148Z,129.38
2018-06-27T12:27:02.217Z,123.75
2018-06-27T12:28:02.214Z,123.75
2018-06-27T12:29:02.203Z,129.38
2018-06-27T12:30:02.214Z,135.00
2018-06-27T12:31:02.264Z,123.75
2018-06-27T12:32:02.273Z,123.75
2018-06-27T12:33:02.261Z,135.00
2018-06-27T12:34:02.284Z,140.63
2018-06-27T12:35:02.300Z,135.00
2018-06-27T12:36:02.356Z,123.75
2018-06-27T12:37:02.323Z,118.13
2018-06-27T12:38:02.348Z,123.75
2018-06-27T12:39:02.386Z,123.75
2018-06-27T12:40:02.348Z,135.00
2018-06-27T12:41:02.407Z,123.75
2018-06-27T12:42:02.397Z,112.50
2018-06-27T12:43:02.447Z,106.88
2018-06-27T12:44:02.427Z,106.88